sensor_id;sensor_type;location;lat;lon;timestamp;pressure;altitude;pressure_sealevel;temperature;humidity
76990;BME280;65924;47.250;11.332;2023-04-15T00:00:33;93859.82;;;7.23;72.83
76990;BME280;65924;47.250;11.332;2023-04-15T00:01:11;93862.59;;;7.22;72.75
76990;BME280;65924;47.250;11.332;2023-04-15T00:01:57;93863.80;;;7.22;72.69
76990;BME280;65924;47.250;11.332;2023-04-15T00:02:37;93864.29;;;7.22;72.58
76990;BME280;65924;47.250;11.332;2023-04-15T00:03:18;93862.82;;;7.22;72.84
76990;BME280;65924;47.250;11.332;2023-04-15T00:03:57;93861.58;;;7.20;72.84
76990;BME280;65924;47.250;11.332;2023-04-15T00:04:36;93860.27;;;7.19;72.70
76990;BME280;65924;47.250;11.332;2023-04-15T00:05:15;93863.54;;;7.19;72.97
76990;BME280;65924;47.250;11.332;2023-04-15T00:05:53;93864.44;;;7.17;73.10
76990;BME280;65924;47.250;11.332;2023-04-15T00:06:32;93867.56;;;7.17;72.90
76990;BME280;65924;47.250;11.332;2023-04-15T00:07:11;93864.04;;;7.16;72.93
76990;BME280;65924;47.250;11.332;2023-04-15T00:07:50;93861.85;;;7.16;72.76
76990;BME280;65924;47.250;11.332;2023-04-15T00:08:28;93865.84;;;7.17;72.88
76990;BME280;65924;47.250;11.332;2023-04-15T00:09:07;93865.95;;;7.18;73.01
76990;BME280;65924;47.250;11.332;2023-04-15T00:09:46;93863.43;;;7.18;72.88
76990;BME280;65924;47.250;11.332;2023-04-15T00:10:24;93863.42;;;7.20;72.86
76990;BME280;65924;47.250;11.332;2023-04-15T00:11:03;93866.13;;;7.20;73.00
76990;BME280;65924;47.250;11.332;2023-04-15T00:11:43;93866.71;;;7.19;73.17
76990;BME280;65924;47.250;11.332;2023-04-15T00:12:21;93872.34;;;7.19;73.18
76990;BME280;65924;47.250;11.332;2023-04-15T00:13:00;93870.45;;;7.19;73.21
76990;BME280;65924;47.250;11.332;2023-04-15T00:13:40;93865.26;;;7.18;73.05
76990;BME280;65924;47.250;11.332;2023-04-15T00:14:19;93870.48;;;7.21;73.08
76990;BME280;65924;47.250;11.332;2023-04-15T00:15:01;93871.64;;;7.21;73.07
76990;BME280;65924;47.250;11.332;2023-04-15T00:15:39;93869.62;;;7.21;72.97
76990;BME280;65924;47.250;11.332;2023-04-15T00:16:18;93868.34;;;7.23;73.11
76990;BME280;65924;47.250;11.332;2023-04-15T00:16:57;93867.68;;;7.23;73.10
76990;BME280;65924;47.250;11.332;2023-04-15T00:17:36;93870.22;;;7.25;73.27
76990;BME280;65924;47.250;11.332;2023-04-15T00:18:16;93868.84;;;7.25;73.18
76990;BME280;65924;47.250;11.332;2023-04-15T00:18:55;93870.39;;;7.25;73.25
76990;BME280;65924;47.250;11.332;2023-04-15T00:19:34;93867.32;;;7.25;73.30
76990;BME280;65924;47.250;11.332;2023-04-15T00:20:12;93865.60;;;7.23;73.42
76990;BME280;65924;47.250;11.332;2023-04-15T00:20:51;93862.92;;;7.25;73.28
76990;BME280;65924;47.250;11.332;2023-04-15T00:21:30;93865.65;;;7.25;73.20
76990;BME280;65924;47.250;11.332;2023-04-15T00:22:10;93866.29;;;7.28;73.19
76990;BME280;65924;47.250;11.332;2023-04-15T00:22:48;93865.86;;;7.29;73.35
76990;BME280;65924;47.250;11.332;2023-04-15T00:23:27;93864.24;;;7.31;73.16
76990;BME280;65924;47.250;11.332;2023-04-15T00:24:06;93860.88;;;7.30;73.05
76990;BME280;65924;47.250;11.332;2023-04-15T00:24:44;93864.23;;;7.31;73.14
76990;BME280;65924;47.250;11.332;2023-04-15T00:25:23;93862.16;;;7.32;73.02
76990;BME280;65924;47.250;11.332;2023-04-15T00:26:02;93859.90;;;7.30;73.19
76990;BME280;65924;47.250;11.332;2023-04-15T00:26:41;93860.23;;;7.30;73.17
76990;BME280;65924;47.250;11.332;2023-04-15T00:27:19;93860.28;;;7.30;72.92
76990;BME280;65924;47.250;11.332;2023-04-15T00:28:01;93863.38;;;7.31;72.92
76990;BME280;65924;47.250;11.332;2023-04-15T00:28:40;93860.17;;;7.31;73.03
76990;BME280;65924;47.250;11.332;2023-04-15T00:29:19;93858.83;;;7.28;72.87
76990;BME280;65924;47.250;11.332;2023-04-15T00:30:01;93857.25;;;7.27;72.87
76990;BME280;65924;47.250;11.332;2023-04-15T00:30:41;93860.47;;;7.26;73.04
76990;BME280;65924;47.250;11.332;2023-04-15T00:31:20;93858.95;;;7.26;72.92
76990;BME280;65924;47.250;11.332;2023-04-15T00:31:59;93857.48;;;7.26;73.02
76990;BME280;65924;47.250;11.332;2023-04-15T00:32:37;93855.31;;;7.23;72.78
76990;BME280;65924;47.250;11.332;2023-04-15T00:33:16;93856.85;;;7.25;72.69
76990;BME280;65924;47.250;11.332;2023-04-15T00:33:55;93855.96;;;7.26;72.70
76990;BME280;65924;47.250;11.332;2023-04-15T00:34:34;93858.80;;;7.26;72.55
76990;BME280;65924;47.250;11.332;2023-04-15T00:35:13;93856.08;;;7.26;72.36
76990;BME280;65924;47.250;11.332;2023-04-15T00:35:51;93853.83;;;7.27;72.42
76990;BME280;65924;47.250;11.332;2023-04-15T00:36:31;93856.74;;;7.29;72.41
76990;BME280;65924;47.250;11.332;2023-04-15T00:37:11;93856.85;;;7.30;72.55
76990;BME280;65924;47.250;11.332;2023-04-15T00:37:49;93854.91;;;7.31;72.63
76990;BME280;65924;47.250;11.332;2023-04-15T00:38:28;93858.25;;;7.32;72.72
76990;BME280;65924;47.250;11.332;2023-04-15T00:39:07;93856.75;;;7.32;72.81
76990;BME280;65924;47.250;11.332;2023-04-15T00:39:46;93853.50;;;7.30;72.84
76990;BME280;65924;47.250;11.332;2023-04-15T00:40:25;93855.52;;;7.27;72.94
76990;BME280;65924;47.250;11.332;2023-04-15T00:41:03;93853.09;;;7.26;73.04
76990;BME280;65924;47.250;11.332;2023-04-15T00:41:43;93855.30;;;7.26;73.15
76990;BME280;65924;47.250;11.332;2023-04-15T00:42:33;93852.64;;;7.25;72.85
76990;BME280;65924;47.250;11.332;2023-04-15T00:43:12;93854.29;;;7.25;72.80
76990;BME280;65924;47.250;11.332;2023-04-15T00:43:50;93856.48;;;7.26;72.68
76990;BME280;65924;47.250;11.332;2023-04-15T00:44:30;93854.19;;;7.27;72.69
76990;BME280;65924;47.250;11.332;2023-04-15T00:45:09;93858.02;;;7.28;72.60
76990;BME280;65924;47.250;11.332;2023-04-15T00:45:53;93855.88;;;7.27;72.77
76990;BME280;65924;47.250;11.332;2023-04-15T00:46:34;93856.01;;;7.25;72.74
76990;BME280;65924;47.250;11.332;2023-04-15T00:47:14;93854.76;;;7.24;72.86
76990;BME280;65924;47.250;11.332;2023-04-15T00:47:53;93853.33;;;7.22;72.77
76990;BME280;65924;47.250;11.332;2023-04-15T00:48:33;93854.40;;;7.21;72.69
76990;BME280;65924;47.250;11.332;2023-04-15T00:49:11;93852.15;;;7.22;72.57
76990;BME280;65924;47.250;11.332;2023-04-15T00:49:50;93853.92;;;7.23;72.40
76990;BME280;65924;47.250;11.332;2023-04-15T00:50:30;93851.89;;;7.23;72.34
76990;BME280;65924;47.250;11.332;2023-04-15T00:51:08;93853.61;;;7.25;72.56
76990;BME280;65924;47.250;11.332;2023-04-15T00:51:48;93852.54;;;7.26;72.56
76990;BME280;65924;47.250;11.332;2023-04-15T00:52:26;93851.83;;;7.24;72.60
76990;BME280;65924;47.250;11.332;2023-04-15T00:53:05;93851.76;;;7.23;72.62
76990;BME280;65924;47.250;11.332;2023-04-15T00:53:44;93850.63;;;7.22;72.57
76990;BME280;65924;47.250;11.332;2023-04-15T00:54:24;93850.48;;;7.22;72.81
76990;BME280;65924;47.250;11.332;2023-04-15T00:55:03;93850.45;;;7.22;72.66
76990;BME280;65924;47.250;11.332;2023-04-15T00:55:43;93849.61;;;7.22;72.64
76990;BME280;65924;47.250;11.332;2023-04-15T00:56:22;93851.00;;;7.22;72.56
76990;BME280;65924;47.250;11.332;2023-04-15T00:57:04;93854.17;;;7.22;72.70
76990;BME280;65924;47.250;11.332;2023-04-15T00:57:44;93850.81;;;7.22;72.69
76990;BME280;65924;47.250;11.332;2023-04-15T00:58:23;93854.45;;;7.21;72.65
76990;BME280;65924;47.250;11.332;2023-04-15T00:59:03;93853.14;;;7.20;72.81
76990;BME280;65924;47.250;11.332;2023-04-15T00:59:42;93854.27;;;7.18;72.67
76990;BME280;65924;47.250;11.332;2023-04-15T01:00:20;93851.16;;;7.17;72.48
76990;BME280;65924;47.250;11.332;2023-04-15T01:01:00;93854.20;;;7.17;72.41
76990;BME280;65924;47.250;11.332;2023-04-15T01:01:39;93853.21;;;7.16;72.39
76990;BME280;65924;47.250;11.332;2023-04-15T01:02:18;93855.31;;;7.15;72.36
76990;BME280;65924;47.250;11.332;2023-04-15T01:02:57;93854.59;;;7.16;72.34
76990;BME280;65924;47.250;11.332;2023-04-15T01:03:36;93856.44;;;7.16;72.40
76990;BME280;65924;47.250;11.332;2023-04-15T01:04:14;93853.91;;;7.16;72.39
76990;BME280;65924;47.250;11.332;2023-04-15T01:04:53;93854.86;;;7.17;72.34
76990;BME280;65924;47.250;11.332;2023-04-15T01:05:35;93857.55;;;7.17;72.23
76990;BME280;65924;47.250;11.332;2023-04-15T01:06:14;93854.51;;;7.17;72.20
76990;BME280;65924;47.250;11.332;2023-04-15T01:06:52;93858.87;;;7.18;72.18
76990;BME280;65924;47.250;11.332;2023-04-15T01:07:31;93857.85;;;7.18;72.14
76990;BME280;65924;47.250;11.332;2023-04-15T01:08:10;93857.80;;;7.19;72.21
76990;BME280;65924;47.250;11.332;2023-04-15T01:08:49;93855.56;;;7.19;72.24
76990;BME280;65924;47.250;11.332;2023-04-15T01:09:28;93854.11;;;7.21;72.19
76990;BME280;65924;47.250;11.332;2023-04-15T01:10:07;93858.44;;;7.22;72.16
76990;BME280;65924;47.250;11.332;2023-04-15T01:10:46;93857.40;;;7.22;72.06
76990;BME280;65924;47.250;11.332;2023-04-15T01:11:25;93846.67;;;7.15;71.96
76990;BME280;65924;47.250;11.332;2023-04-15T01:12:05;93854.84;;;7.22;72.02
76990;BME280;65924;47.250;11.332;2023-04-15T01:12:44;93851.82;;;7.22;72.13
76990;BME280;65924;47.250;11.332;2023-04-15T01:13:23;93854.58;;;7.21;72.17
76990;BME280;65924;47.250;11.332;2023-04-15T01:14:02;93854.00;;;7.20;72.22
76990;BME280;65924;47.250;11.332;2023-04-15T01:14:41;93853.92;;;7.18;71.93
76990;BME280;65924;47.250;11.332;2023-04-15T01:15:20;93853.61;;;7.18;72.06
76990;BME280;65924;47.250;11.332;2023-04-15T01:16:00;93854.92;;;7.19;72.33
76990;BME280;65924;47.250;11.332;2023-04-15T01:16:40;93852.50;;;7.17;72.48
76990;BME280;65924;47.250;11.332;2023-04-15T01:17:19;93850.20;;;7.16;72.51
76990;BME280;65924;47.250;11.332;2023-04-15T01:17:58;93855.13;;;7.16;72.87
76990;BME280;65924;47.250;11.332;2023-04-15T01:18:37;93854.36;;;7.14;72.92
76990;BME280;65924;47.250;11.332;2023-04-15T01:19:18;93857.05;;;7.14;72.90
76990;BME280;65924;47.250;11.332;2023-04-15T01:19:57;93857.08;;;7.13;72.78
76990;BME280;65924;47.250;11.332;2023-04-15T01:20:36;93850.56;;;7.10;72.56
76990;BME280;65924;47.250;11.332;2023-04-15T01:21:18;93858.58;;;7.15;72.72
76990;BME280;65924;47.250;11.332;2023-04-15T01:21:58;93859.17;;;7.16;72.55
76990;BME280;65924;47.250;11.332;2023-04-15T01:22:37;93858.79;;;7.16;72.60
76990;BME280;65924;47.250;11.332;2023-04-15T01:23:20;93860.82;;;7.16;72.58
76990;BME280;65924;47.250;11.332;2023-04-15T01:24:01;93858.29;;;7.16;72.61
76990;BME280;65924;47.250;11.332;2023-04-15T01:25:00;93854.80;;;7.16;72.54
76990;BME280;65924;47.250;11.332;2023-04-15T01:25:40;93856.20;;;7.14;72.54
76990;BME280;65924;47.250;11.332;2023-04-15T01:26:20;93857.46;;;7.13;72.66
76990;BME280;65924;47.250;11.332;2023-04-15T01:26:59;93856.31;;;7.12;72.47
76990;BME280;65924;47.250;11.332;2023-04-15T01:27:38;93856.42;;;7.13;72.22
76990;BME280;65924;47.250;11.332;2023-04-15T01:28:18;93855.77;;;7.13;72.41
76990;BME280;65924;47.250;11.332;2023-04-15T01:28:57;93857.26;;;7.13;72.62
76990;BME280;65924;47.250;11.332;2023-04-15T01:29:37;93858.56;;;7.11;72.69
76990;BME280;65924;47.250;11.332;2023-04-15T01:30:17;93859.80;;;7.11;72.60
76990;BME280;65924;47.250;11.332;2023-04-15T01:31:10;93861.80;;;7.08;72.65
76990;BME280;65924;47.250;11.332;2023-04-15T01:31:51;93863.84;;;7.09;72.58
76990;BME280;65924;47.250;11.332;2023-04-15T01:32:30;93862.86;;;7.08;72.56
76990;BME280;65924;47.250;11.332;2023-04-15T01:33:09;93862.83;;;7.08;72.42
76990;BME280;65924;47.250;11.332;2023-04-15T01:33:50;93864.11;;;7.09;72.31
76990;BME280;65924;47.250;11.332;2023-04-15T01:34:28;93863.95;;;7.09;72.47
76990;BME280;65924;47.250;11.332;2023-04-15T01:35:07;93865.86;;;7.08;72.49
76990;BME280;65924;47.250;11.332;2023-04-15T01:35:46;93866.05;;;7.08;72.69
76990;BME280;65924;47.250;11.332;2023-04-15T01:36:25;93865.64;;;7.07;72.64
76990;BME280;65924;47.250;11.332;2023-04-15T01:37:05;93865.95;;;7.07;72.70
76990;BME280;65924;47.250;11.332;2023-04-15T01:37:45;93865.39;;;7.08;72.78
76990;BME280;65924;47.250;11.332;2023-04-15T01:38:28;93869.09;;;7.08;72.76
76990;BME280;65924;47.250;11.332;2023-04-15T01:39:07;93867.73;;;7.08;72.82
76990;BME280;65924;47.250;11.332;2023-04-15T01:39:46;93866.25;;;7.08;73.02
76990;BME280;65924;47.250;11.332;2023-04-15T01:40:25;93864.77;;;7.07;72.84
76990;BME280;65924;47.250;11.332;2023-04-15T01:41:04;93863.45;;;7.07;72.69
76990;BME280;65924;47.250;11.332;2023-04-15T01:41:44;93864.14;;;7.06;72.57
76990;BME280;65924;47.250;11.332;2023-04-15T01:42:24;93863.95;;;7.07;72.62
76990;BME280;65924;47.250;11.332;2023-04-15T01:43:02;93864.56;;;7.08;72.51
76990;BME280;65924;47.250;11.332;2023-04-15T01:43:41;93865.45;;;7.07;72.39
76990;BME280;65924;47.250;11.332;2023-04-15T01:44:21;93862.22;;;7.10;72.15
76990;BME280;65924;47.250;11.332;2023-04-15T01:44:59;93865.08;;;7.10;71.96
76990;BME280;65924;47.250;11.332;2023-04-15T01:45:38;93864.02;;;7.10;72.04
76990;BME280;65924;47.250;11.332;2023-04-15T01:46:17;93864.80;;;7.12;71.98
76990;BME280;65924;47.250;11.332;2023-04-15T01:46:56;93864.80;;;7.12;72.22
76990;BME280;65924;47.250;11.332;2023-04-15T01:47:34;93865.80;;;7.12;72.20
76990;BME280;65924;47.250;11.332;2023-04-15T01:48:13;93863.30;;;7.11;72.39
76990;BME280;65924;47.250;11.332;2023-04-15T01:48:52;93864.85;;;7.11;72.19
76990;BME280;65924;47.250;11.332;2023-04-15T01:49:31;93866.37;;;7.11;72.13
76990;BME280;65924;47.250;11.332;2023-04-15T01:50:09;93858.34;;;7.10;72.37
76990;BME280;65924;47.250;11.332;2023-04-15T01:50:48;93861.37;;;7.10;72.45
76990;BME280;65924;47.250;11.332;2023-04-15T01:51:28;93862.67;;;7.08;72.41
76990;BME280;65924;47.250;11.332;2023-04-15T01:52:06;93862.40;;;7.07;72.48
76990;BME280;65924;47.250;11.332;2023-04-15T01:52:45;93863.43;;;7.07;72.17
76990;BME280;65924;47.250;11.332;2023-04-15T01:53:25;93864.06;;;7.08;72.32
76990;BME280;65924;47.250;11.332;2023-04-15T01:54:03;93861.95;;;7.07;72.42
76990;BME280;65924;47.250;11.332;2023-04-15T01:54:42;93862.30;;;7.08;72.26
76990;BME280;65924;47.250;11.332;2023-04-15T01:55:20;93863.27;;;7.09;72.00
76990;BME280;65924;47.250;11.332;2023-04-15T01:55:59;93864.38;;;7.10;72.00
76990;BME280;65924;47.250;11.332;2023-04-15T01:56:38;93864.98;;;7.11;72.01
76990;BME280;65924;47.250;11.332;2023-04-15T01:57:17;93864.09;;;7.12;71.97
76990;BME280;65924;47.250;11.332;2023-04-15T01:57:56;93862.16;;;7.13;72.07
76990;BME280;65924;47.250;11.332;2023-04-15T01:58:35;93860.59;;;7.11;72.22
76990;BME280;65924;47.250;11.332;2023-04-15T01:59:15;93858.47;;;7.10;72.28
76990;BME280;65924;47.250;11.332;2023-04-15T01:59:54;93858.08;;;7.09;72.25
76990;BME280;65924;47.250;11.332;2023-04-15T02:00:34;93857.98;;;7.08;72.25
76990;BME280;65924;47.250;11.332;2023-04-15T02:01:12;93859.87;;;7.07;72.32
76990;BME280;65924;47.250;11.332;2023-04-15T02:01:52;93860.46;;;7.06;72.39
76990;BME280;65924;47.250;11.332;2023-04-15T02:02:31;93859.70;;;7.05;72.19
76990;BME280;65924;47.250;11.332;2023-04-15T02:03:13;93860.20;;;7.05;71.95
76990;BME280;65924;47.250;11.332;2023-04-15T02:03:51;93860.80;;;7.06;71.79
76990;BME280;65924;47.250;11.332;2023-04-15T02:04:30;93856.36;;;7.06;72.04
76990;BME280;65924;47.250;11.332;2023-04-15T02:05:12;93857.59;;;7.06;72.14
76990;BME280;65924;47.250;11.332;2023-04-15T02:05:51;93857.94;;;7.05;72.05
76990;BME280;65924;47.250;11.332;2023-04-15T02:06:30;93858.19;;;7.04;71.80
76990;BME280;65924;47.250;11.332;2023-04-15T02:07:09;93859.54;;;7.07;71.81
76990;BME280;65924;47.250;11.332;2023-04-15T02:07:47;93858.17;;;7.07;71.93
76990;BME280;65924;47.250;11.332;2023-04-15T02:08:26;93859.03;;;7.07;71.97
76990;BME280;65924;47.250;11.332;2023-04-15T02:09:05;93859.12;;;7.08;71.83
76990;BME280;65924;47.250;11.332;2023-04-15T02:09:44;93857.95;;;7.08;71.91
76990;BME280;65924;47.250;11.332;2023-04-15T02:10:23;93857.69;;;7.07;71.94
76990;BME280;65924;47.250;11.332;2023-04-15T02:11:02;93858.88;;;7.09;71.87
76990;BME280;65924;47.250;11.332;2023-04-15T02:11:45;93859.07;;;7.09;71.55
76990;BME280;65924;47.250;11.332;2023-04-15T02:12:33;93856.76;;;7.08;71.89
76990;BME280;65924;47.250;11.332;2023-04-15T02:13:12;93861.17;;;7.08;71.57
76990;BME280;65924;47.250;11.332;2023-04-15T02:13:51;93858.36;;;7.07;71.38
76990;BME280;65924;47.250;11.332;2023-04-15T02:14:30;93857.73;;;7.06;71.59
76990;BME280;65924;47.250;11.332;2023-04-15T02:15:09;93859.88;;;7.04;71.73
76990;BME280;65924;47.250;11.332;2023-04-15T02:15:49;93859.66;;;7.02;71.51
76990;BME280;65924;47.250;11.332;2023-04-15T02:16:31;93858.45;;;7.00;71.36
76990;BME280;65924;47.250;11.332;2023-04-15T02:17:10;93856.73;;;7.01;71.65
76990;BME280;65924;47.250;11.332;2023-04-15T02:17:49;93857.11;;;7.00;71.41
76990;BME280;65924;47.250;11.332;2023-04-15T02:18:29;93858.80;;;7.00;71.29
76990;BME280;65924;47.250;11.332;2023-04-15T02:19:09;93860.01;;;7.00;71.52
76990;BME280;65924;47.250;11.332;2023-04-15T02:19:56;93855.65;;;6.99;71.45
76990;BME280;65924;47.250;11.332;2023-04-15T02:20:38;93858.86;;;7.00;71.20
76990;BME280;65924;47.250;11.332;2023-04-15T02:21:17;93859.73;;;6.99;71.46
76990;BME280;65924;47.250;11.332;2023-04-15T02:21:58;93860.11;;;6.98;71.28
76990;BME280;65924;47.250;11.332;2023-04-15T02:22:39;93859.66;;;6.98;71.21
76990;BME280;65924;47.250;11.332;2023-04-15T02:23:18;93861.17;;;6.98;71.22
76990;BME280;65924;47.250;11.332;2023-04-15T02:23:58;93858.23;;;6.99;70.93
76990;BME280;65924;47.250;11.332;2023-04-15T02:24:37;93862.09;;;6.99;71.36
76990;BME280;65924;47.250;11.332;2023-04-15T02:25:16;93857.41;;;6.98;71.37
76990;BME280;65924;47.250;11.332;2023-04-15T02:25:57;93855.67;;;6.97;71.36
76990;BME280;65924;47.250;11.332;2023-04-15T02:26:37;93858.79;;;6.95;71.21
76990;BME280;65924;47.250;11.332;2023-04-15T02:27:16;93858.99;;;6.94;70.99
76990;BME280;65924;47.250;11.332;2023-04-15T02:27:56;93856.77;;;6.95;71.17
76990;BME280;65924;47.250;11.332;2023-04-15T02:28:35;93859.23;;;6.94;71.32
76990;BME280;65924;47.250;11.332;2023-04-15T02:29:14;93857.19;;;6.91;71.20
76990;BME280;65924;47.250;11.332;2023-04-15T02:29:55;93856.27;;;6.90;71.31
76990;BME280;65924;47.250;11.332;2023-04-15T02:30:33;93856.38;;;6.88;71.33
76990;BME280;65924;47.250;11.332;2023-04-15T02:31:13;93859.77;;;6.88;71.19
76990;BME280;65924;47.250;11.332;2023-04-15T02:31:52;93860.85;;;6.87;71.08
76990;BME280;65924;47.250;11.332;2023-04-15T02:32:32;93860.45;;;6.88;71.06
76990;BME280;65924;47.250;11.332;2023-04-15T02:33:10;93863.34;;;6.88;71.14
76990;BME280;65924;47.250;11.332;2023-04-15T02:33:49;93863.08;;;6.86;71.06
76990;BME280;65924;47.250;11.332;2023-04-15T02:34:28;93864.00;;;6.85;71.11
76990;BME280;65924;47.250;11.332;2023-04-15T02:35:09;93865.05;;;6.82;71.16
76990;BME280;65924;47.250;11.332;2023-04-15T02:35:48;93864.95;;;6.81;71.23
76990;BME280;65924;47.250;11.332;2023-04-15T02:36:26;93865.17;;;6.80;71.16
76990;BME280;65924;47.250;11.332;2023-04-15T02:37:09;93862.91;;;6.81;71.14
76990;BME280;65924;47.250;11.332;2023-04-15T02:37:48;93864.06;;;6.82;71.08
76990;BME280;65924;47.250;11.332;2023-04-15T02:38:27;93866.61;;;6.81;70.88
76990;BME280;65924;47.250;11.332;2023-04-15T02:39:06;93866.05;;;6.82;70.63
76990;BME280;65924;47.250;11.332;2023-04-15T02:39:45;93862.76;;;6.84;70.15
76990;BME280;65924;47.250;11.332;2023-04-15T02:40:24;93863.02;;;6.85;69.95
76990;BME280;65924;47.250;11.332;2023-04-15T02:41:03;93864.31;;;6.86;69.53
76990;BME280;65924;47.250;11.332;2023-04-15T02:41:42;93862.45;;;6.86;69.62
76990;BME280;65924;47.250;11.332;2023-04-15T02:42:23;93863.96;;;6.86;69.42
76990;BME280;65924;47.250;11.332;2023-04-15T02:43:05;93862.15;;;6.85;69.21
76990;BME280;65924;47.250;11.332;2023-04-15T02:43:45;93861.31;;;6.85;69.28
76990;BME280;65924;47.250;11.332;2023-04-15T02:44:24;93863.05;;;6.84;69.25
76990;BME280;65924;47.250;11.332;2023-04-15T02:45:05;93864.04;;;6.84;69.35
76990;BME280;65924;47.250;11.332;2023-04-15T02:45:45;93860.69;;;6.82;69.62
76990;BME280;65924;47.250;11.332;2023-04-15T02:46:24;93860.50;;;6.82;69.40
76990;BME280;65924;47.250;11.332;2023-04-15T02:47:03;93860.58;;;6.81;69.19
76990;BME280;65924;47.250;11.332;2023-04-15T02:47:43;93858.26;;;6.80;69.13
76990;BME280;65924;47.250;11.332;2023-04-15T02:48:23;93856.99;;;6.79;69.23
76990;BME280;65924;47.250;11.332;2023-04-15T02:49:02;93857.23;;;6.78;68.98
76990;BME280;65924;47.250;11.332;2023-04-15T02:49:40;93860.48;;;6.77;69.25
76990;BME280;65924;47.250;11.332;2023-04-15T02:50:19;93856.14;;;6.76;69.20
76990;BME280;65924;47.250;11.332;2023-04-15T02:51:56;93853.21;;;6.71;69.73
76990;BME280;65924;47.250;11.332;2023-04-15T02:52:35;93854.38;;;6.69;69.76
76990;BME280;65924;47.250;11.332;2023-04-15T02:53:14;93853.90;;;6.66;69.63
76990;BME280;65924;47.250;11.332;2023-04-15T02:53:53;93852.89;;;6.66;69.84
76990;BME280;65924;47.250;11.332;2023-04-15T02:54:31;93857.11;;;6.66;69.68
76990;BME280;65924;47.250;11.332;2023-04-15T02:55:11;93852.52;;;6.64;69.66
76990;BME280;65924;47.250;11.332;2023-04-15T02:55:50;93853.75;;;6.63;69.91
76990;BME280;65924;47.250;11.332;2023-04-15T02:56:29;93852.45;;;6.63;69.48
76990;BME280;65924;47.250;11.332;2023-04-15T02:57:08;93854.50;;;6.62;69.45
76990;BME280;65924;47.250;11.332;2023-04-15T02:57:48;93855.36;;;6.62;69.14
76990;BME280;65924;47.250;11.332;2023-04-15T02:58:27;93853.88;;;6.61;69.00
76990;BME280;65924;47.250;11.332;2023-04-15T02:59:05;93853.65;;;6.62;68.92
76990;BME280;65924;47.250;11.332;2023-04-15T02:59:46;93854.98;;;6.62;69.15
76990;BME280;65924;47.250;11.332;2023-04-15T03:00:26;93850.59;;;6.60;68.86
76990;BME280;65924;47.250;11.332;2023-04-15T03:01:05;93855.02;;;6.62;68.29
76990;BME280;65924;47.250;11.332;2023-04-15T03:01:45;93855.05;;;6.61;68.43
76990;BME280;65924;47.250;11.332;2023-04-15T03:02:23;93855.39;;;6.61;68.32
76990;BME280;65924;47.250;11.332;2023-04-15T03:03:09;93857.27;;;6.61;68.30
76990;BME280;65924;47.250;11.332;2023-04-15T03:03:48;93851.90;;;6.60;68.37
76990;BME280;65924;47.250;11.332;2023-04-15T03:04:29;93852.79;;;6.60;68.53
76990;BME280;65924;47.250;11.332;2023-04-15T03:05:18;93852.69;;;6.59;68.66
76990;BME280;65924;47.250;11.332;2023-04-15T03:06:02;93848.52;;;6.55;68.68
76990;BME280;65924;47.250;11.332;2023-04-15T03:06:41;93850.98;;;6.53;68.93
76990;BME280;65924;47.250;11.332;2023-04-15T03:07:20;93851.29;;;6.51;69.04
76990;BME280;65924;47.250;11.332;2023-04-15T03:07:59;93847.68;;;6.50;68.72
76990;BME280;65924;47.250;11.332;2023-04-15T03:08:38;93853.48;;;6.49;68.70
76990;BME280;65924;47.250;11.332;2023-04-15T03:09:17;93855.07;;;6.48;68.63
76990;BME280;65924;47.250;11.332;2023-04-15T03:09:57;93856.30;;;6.47;69.06
76990;BME280;65924;47.250;11.332;2023-04-15T03:10:37;93852.03;;;6.45;68.98
76990;BME280;65924;47.250;11.332;2023-04-15T03:11:15;93854.20;;;6.43;68.86
76990;BME280;65924;47.250;11.332;2023-04-15T03:11:55;93854.92;;;6.42;68.87
76990;BME280;65924;47.250;11.332;2023-04-15T03:12:43;93857.61;;;6.42;68.99
76990;BME280;65924;47.250;11.332;2023-04-15T03:13:25;93852.48;;;6.40;68.77
76990;BME280;65924;47.250;11.332;2023-04-15T03:14:07;93855.25;;;6.42;68.48
76990;BME280;65924;47.250;11.332;2023-04-15T03:14:47;93855.73;;;6.43;68.82
76990;BME280;65924;47.250;11.332;2023-04-15T03:15:27;93851.81;;;6.43;69.02
76990;BME280;65924;47.250;11.332;2023-04-15T03:16:06;93857.10;;;6.42;69.03
76990;BME280;65924;47.250;11.332;2023-04-15T03:16:45;93856.73;;;6.42;68.73
76990;BME280;65924;47.250;11.332;2023-04-15T03:17:24;93858.23;;;6.43;68.56
76990;BME280;65924;47.250;11.332;2023-04-15T03:18:04;93856.88;;;6.43;68.79
76990;BME280;65924;47.250;11.332;2023-04-15T03:18:43;93860.59;;;6.43;68.70
76990;BME280;65924;47.250;11.332;2023-04-15T03:19:21;93864.48;;;6.43;69.17
76990;BME280;65924;47.250;11.332;2023-04-15T03:20:02;93863.08;;;6.41;68.83
76990;BME280;65924;47.250;11.332;2023-04-15T03:20:44;93862.48;;;6.39;68.86
76990;BME280;65924;47.250;11.332;2023-04-15T03:21:24;93865.27;;;6.38;68.62
76990;BME280;65924;47.250;11.332;2023-04-15T03:22:04;93861.27;;;6.37;68.49
76990;BME280;65924;47.250;11.332;2023-04-15T03:22:44;93862.35;;;6.36;68.52
76990;BME280;65924;47.250;11.332;2023-04-15T03:23:23;93858.05;;;6.35;68.71
76990;BME280;65924;47.250;11.332;2023-04-15T03:24:02;93861.78;;;6.34;68.76
76990;BME280;65924;47.250;11.332;2023-04-15T03:24:44;93862.72;;;6.33;68.52
76990;BME280;65924;47.250;11.332;2023-04-15T03:25:23;93860.10;;;6.31;68.41
76990;BME280;65924;47.250;11.332;2023-04-15T03:26:02;93858.48;;;6.31;68.77
76990;BME280;65924;47.250;11.332;2023-04-15T03:26:42;93857.06;;;6.29;68.76
76990;BME280;65924;47.250;11.332;2023-04-15T03:27:24;93858.11;;;6.29;68.19
76990;BME280;65924;47.250;11.332;2023-04-15T03:28:03;93858.13;;;6.28;68.53
76990;BME280;65924;47.250;11.332;2023-04-15T03:28:42;93855.46;;;6.28;68.67
76990;BME280;65924;47.250;11.332;2023-04-15T03:29:20;93855.14;;;6.27;68.57
76990;BME280;65924;47.250;11.332;2023-04-15T03:30:00;93855.81;;;6.28;68.38
76990;BME280;65924;47.250;11.332;2023-04-15T03:30:39;93855.13;;;6.28;68.27
76990;BME280;65924;47.250;11.332;2023-04-15T03:31:18;93855.48;;;6.28;68.50